createdAt,value
2023-01-18T00:01:48.797Z,1.30
2023-01-18T00:06:55.489Z,1.50
2023-01-18T00:12:02.434Z,1.40
2023-01-18T00:17:09.258Z,1.30
2023-01-18T00:22:16.212Z,1.30
2023-01-18T00:27:22.898Z,1.30
2023-01-18T00:32:30.153Z,1.30
2023-01-18T00:37:38.691Z,1.30
2023-01-18T00:43:03.061Z,1.30
2023-01-18T00:48:08.855Z,1.30
2023-01-18T00:53:15.933Z,1.40
2023-01-18T00:58:22.787Z,1.30
2023-01-18T01:03:31.369Z,1.40
2023-01-18T01:08:38.118Z,1.30
2023-01-18T01:14:02.530Z,1.50
2023-01-18T01:19:27.377Z,1.50
2023-01-18T01:24:52.223Z,1.40
2023-01-18T01:29:59.228Z,1.40
2023-01-18T01:35:06.584Z,1.40
2023-01-18T01:40:15.136Z,1.50
2023-01-18T01:45:24.278Z,1.50
2023-01-18T01:50:37.402Z,1.40
2023-01-18T01:55:44.012Z,1.30
2023-01-18T02:00:50.973Z,1.30
2023-01-18T02:06:02.581Z,1.20
2023-01-18T02:11:09.451Z,1.10
2023-01-18T02:16:50.610Z,1.10
2023-01-18T02:22:01.589Z,1.20
2023-01-18T02:27:37.972Z,1.30
2023-01-18T02:33:09.778Z,1.40
2023-01-18T02:38:20.977Z,1.30
2023-01-18T02:43:46.091Z,1.30
2023-01-18T02:48:53.586Z,1.20
2023-01-18T02:54:00.627Z,1.40
2023-01-18T02:59:20.049Z,1.30
2023-01-18T03:04:31.341Z,1.20
2023-01-18T03:09:38.968Z,1.30
2023-01-18T03:15:10.264Z,1.20
2023-01-18T03:20:25.386Z,1.30
2023-01-18T03:25:41.462Z,1.30
2023-01-18T03:31:07.145Z,1.40
2023-01-18T03:36:33.129Z,1.30
2023-01-18T03:41:43.861Z,1.30
2023-01-18T03:46:50.828Z,1.20
2023-01-18T03:52:20.114Z,1.20
2023-01-18T03:57:40.129Z,1.20
2023-01-18T04:02:49.631Z,1.10
2023-01-18T04:07:56.443Z,1.20
2023-01-18T04:13:03.087Z,1.20
2023-01-18T04:18:09.831Z,1.20
2023-01-18T04:23:16.641Z,1.30
2023-01-18T04:28:26.316Z,1.00
2023-01-18T04:33:33.055Z,0.90
2023-01-18T04:38:39.755Z,0.70
2023-01-18T04:43:46.432Z,0.80
2023-01-18T04:48:54.338Z,0.90
2023-01-18T04:54:04.171Z,1.10
2023-01-18T04:59:13.889Z,1.00
2023-01-18T05:04:20.616Z,0.90
2023-01-18T05:09:27.639Z,1.20
2023-01-18T05:14:35.249Z,1.00
2023-01-18T05:19:42.007Z,1.10
2023-01-18T05:24:48.751Z,1.00
2023-01-18T05:29:55.429Z,1.10
2023-01-18T05:35:02.970Z,1.10
2023-01-18T05:40:11.667Z,1.20
2023-01-18T05:45:18.583Z,1.10
2023-01-18T05:50:25.269Z,1.00
2023-01-18T05:55:31.979Z,1.10
2023-01-18T06:00:39.417Z,1.20
2023-01-18T06:05:46.184Z,1.30
2023-01-18T06:11:00.269Z,1.20
2023-01-18T06:16:07.692Z,1.20
2023-01-18T06:21:14.408Z,1.10
2023-01-18T06:26:21.067Z,1.20
2023-01-18T06:31:27.788Z,1.20
2023-01-18T06:36:34.444Z,1.20
2023-01-18T06:41:41.279Z,1.10
2023-01-18T06:46:48.110Z,1.10
2023-01-18T06:51:54.855Z,1.10
2023-01-18T06:57:01.576Z,1.20
2023-01-18T07:02:08.989Z,1.20
2023-01-18T07:07:16.726Z,1.30
2023-01-18T07:12:23.687Z,1.30
2023-01-18T07:17:30.375Z,1.30
2023-01-18T07:22:37.109Z,1.30
2023-01-18T07:27:44.428Z,1.10
2023-01-18T07:32:53.669Z,1.00
2023-01-18T07:38:00.434Z,0.90
2023-01-18T07:43:07.100Z,1.20
2023-01-18T07:48:13.781Z,1.60
2023-01-18T07:53:20.984Z,1.60
2023-01-18T07:58:27.769Z,1.40
2023-01-18T08:03:34.875Z,1.40
2023-01-18T08:08:42.249Z,1.20
2023-01-18T08:13:50.862Z,1.40
2023-01-18T08:18:57.637Z,1.40
2023-01-18T08:24:04.499Z,1.50
2023-01-18T08:29:11.204Z,1.40
2023-01-18T08:34:17.920Z,1.60
2023-01-18T08:39:24.599Z,1.60
2023-01-18T08:44:31.291Z,1.60
2023-01-18T08:49:38.365Z,1.70
2023-01-18T08:54:45.029Z,1.80
2023-01-18T08:59:51.754Z,1.80
2023-01-18T09:04:58.593Z,1.80
2023-01-18T09:10:05.598Z,1.60
2023-01-18T09:15:12.418Z,1.60
2023-01-18T09:20:19.414Z,1.80
2023-01-18T09:25:26.123Z,1.80
2023-01-18T09:30:33.727Z,1.70
2023-01-18T09:35:40.384Z,1.80
2023-01-18T09:40:47.890Z,1.80
2023-01-18T09:45:55.849Z,1.80
2023-01-18T09:51:09.893Z,1.80
2023-01-18T09:56:28.966Z,1.80
2023-01-18T10:01:37.815Z,2.10
2023-01-18T10:06:49.177Z,2.00
2023-01-18T10:12:04.835Z,1.90
2023-01-18T10:17:15.231Z,2.00
2023-01-18T10:22:41.066Z,1.80
2023-01-18T10:27:52.471Z,1.90
2023-01-18T10:33:03.253Z,2.00
2023-01-18T10:38:16.813Z,2.20
2023-01-18T10:43:25.709Z,2.20
2023-01-18T10:48:36.143Z,2.10
2023-01-18T10:53:43.192Z,2.30
2023-01-18T10:58:59.220Z,2.50
2023-01-18T11:04:24.933Z,2.30
2023-01-18T11:09:44.892Z,2.60
2023-01-18T11:14:52.435Z,2.50
2023-01-18T11:20:19.478Z,2.30
2023-01-18T11:25:27.995Z,2.40
2023-01-18T11:30:35.396Z,2.40
2023-01-18T11:35:42.811Z,2.20
2023-01-18T11:40:49.991Z,2.30
2023-01-18T11:46:00.592Z,2.50
2023-01-18T11:51:21.888Z,2.20
2023-01-18T11:56:48.095Z,2.30
2023-01-18T12:02:17.025Z,2.50
2023-01-18T12:07:59.067Z,2.10
2023-01-18T12:13:38.186Z,2.20
2023-01-18T12:19:25.382Z,2.20
2023-01-18T12:24:56.223Z,2.30
2023-01-18T12:30:34.673Z,2.30
2023-01-18T12:36:03.783Z,2.40
2023-01-18T12:41:41.686Z,2.40
2023-01-18T12:47:01.945Z,2.30
2023-01-18T12:52:18.442Z,2.40
2023-01-18T12:57:18.088Z,2.50
2023-01-18T13:02:45.233Z,2.50
2023-01-18T13:08:03.603Z,2.50
2023-01-18T13:13:14.310Z,2.50
2023-01-18T13:18:37.557Z,2.40
2023-01-18T13:23:57.428Z,2.60
2023-01-18T13:29:30.133Z,2.50
2023-01-18T13:34:47.981Z,2.20
2023-01-18T13:39:51.386Z,2.30
2023-01-18T13:45:22.612Z,2.30
2023-01-18T13:50:38.483Z,2.40
2023-01-18T13:56:09.033Z,2.30
2023-01-18T14:01:24.516Z,2.40
2023-01-18T14:06:42.107Z,2.40
2023-01-18T14:11:58.494Z,2.30
2023-01-18T14:17:19.727Z,2.10
2023-01-18T14:23:04.015Z,2.20
2023-01-18T14:28:18.193Z,2.20
2023-01-18T14:33:32.529Z,2.10
2023-01-18T14:38:40.933Z,2.20
2023-01-18T14:43:49.814Z,2.10
2023-01-18T14:48:59.470Z,2.00
2023-01-18T14:54:07.456Z,2.00
2023-01-18T14:59:28.056Z,2.10
2023-01-18T15:04:37.741Z,2.10
2023-01-18T15:09:45.982Z,2.00
2023-01-18T15:14:54.724Z,2.00
2023-01-18T15:20:06.096Z,2.10
2023-01-18T15:25:29.049Z,2.00
2023-01-18T15:30:35.754Z,2.00
2023-01-18T15:35:43.009Z,2.00
2023-01-18T15:41:06.239Z,2.10
2023-01-18T15:46:16.746Z,2.10
2023-01-18T15:51:25.535Z,2.00
2023-01-18T15:56:33.663Z,1.90
2023-01-18T16:01:41.799Z,1.90
2023-01-18T16:06:48.542Z,1.90
2023-01-18T16:12:00.740Z,1.90
2023-01-18T16:17:22.761Z,1.90
2023-01-18T16:22:37.875Z,1.90
2023-01-18T16:27:59.974Z,1.80
2023-01-18T16:33:19.394Z,1.60
2023-01-18T16:38:25.988Z,1.70
2023-01-18T16:43:34.913Z,1.70
2023-01-18T16:48:41.780Z,1.60
2023-01-18T16:53:49.801Z,1.70
2023-01-18T16:58:56.541Z,1.70
2023-01-18T17:04:03.784Z,2.00
2023-01-18T17:09:24.108Z,1.90
2023-01-18T17:14:30.915Z,1.90
2023-01-18T17:19:38.298Z,1.90
2023-01-18T17:24:45.537Z,1.80
2023-01-18T17:29:52.879Z,1.90
2023-01-18T17:35:00.115Z,1.90
2023-01-18T17:40:17.261Z,1.90
2023-01-18T17:45:16.136Z,1.80
2023-01-18T17:50:24.657Z,1.70
2023-01-18T17:55:35.097Z,1.70
2023-01-18T18:00:40.085Z,1.70
2023-01-18T18:05:46.931Z,1.70
2023-01-18T18:10:53.839Z,1.80
2023-01-18T18:16:00.797Z,1.90
2023-01-18T18:21:10.362Z,1.90
2023-01-18T18:26:17.222Z,1.90
2023-01-18T18:31:23.982Z,1.70
2023-01-18T18:36:30.772Z,1.70
2023-01-18T18:41:37.517Z,1.70
2023-01-18T18:46:44.419Z,1.80
2023-01-18T18:51:51.198Z,1.80
2023-01-18T18:56:58.330Z,1.80
2023-01-18T19:02:05.643Z,1.70
2023-01-18T19:07:12.781Z,1.70
2023-01-18T19:12:19.583Z,1.60
2023-01-18T19:17:30.633Z,1.60
2023-01-18T19:22:35.894Z,1.70
2023-01-18T19:27:43.579Z,1.70
2023-01-18T19:32:54.452Z,1.70
2023-01-18T19:38:01.291Z,1.80
2023-01-18T19:43:08.846Z,1.70
2023-01-18T19:48:15.665Z,1.70
2023-01-18T19:53:23.242Z,1.70
2023-01-18T19:58:31.814Z,1.70
2023-01-18T20:03:39.078Z,1.70
2023-01-18T20:08:46.249Z,1.80
2023-01-18T20:13:53.917Z,1.70
2023-01-18T20:19:00.897Z,1.60
2023-01-18T20:24:08.254Z,1.80
2023-01-18T20:29:15.006Z,1.70
2023-01-18T20:34:22.108Z,1.70
2023-01-18T20:39:28.862Z,1.80
2023-01-18T20:44:36.365Z,1.80
2023-01-18T20:49:43.651Z,1.70
2023-01-18T20:54:50.443Z,1.60
2023-01-18T20:59:57.505Z,1.60
2023-01-18T21:05:04.607Z,1.60
2023-01-18T21:10:13.099Z,1.60
2023-01-18T21:15:20.403Z,1.70
2023-01-18T21:20:28.877Z,1.80
2023-01-18T21:25:35.906Z,1.80
2023-01-18T21:30:42.645Z,1.80
2023-01-18T21:35:49.461Z,1.60
2023-01-18T21:40:56.197Z,1.80
2023-01-18T21:46:03.228Z,1.60
2023-01-18T21:51:28.312Z,1.70
2023-01-18T21:56:35.046Z,1.70
2023-01-18T22:01:48.240Z,1.70
2023-01-18T22:06:57.472Z,1.60
2023-01-18T22:12:04.405Z,1.60
2023-01-18T22:17:11.234Z,1.70
2023-01-18T22:22:17.940Z,1.70
2023-01-18T22:27:24.911Z,1.70
2023-01-18T22:32:31.737Z,1.70
2023-01-18T22:37:38.480Z,1.70
2023-01-18T22:42:45.503Z,1.70
2023-01-18T22:47:52.276Z,1.70
2023-01-18T22:52:59.414Z,1.80
2023-01-18T22:58:06.278Z,1.80
2023-01-18T23:03:13.998Z,1.60
2023-01-18T23:08:21.530Z,1.60
2023-01-18T23:13:28.345Z,1.80
2023-01-18T23:18:35.288Z,1.80
2023-01-18T23:23:42.031Z,1.70
2023-01-18T23:28:49.382Z,1.70
2023-01-18T23:33:56.166Z,1.70
2023-01-18T23:39:20.652Z,1.60
2023-01-18T23:44:45.447Z,1.60
2023-01-18T23:50:09.708Z,1.40
2023-01-18T23:55:15.799Z,1.40
